Archival Weather

Tokyo Intl

Tokyo Intl, Japan (RJTT)

Report from: Friday, June 24, 2022 10:00 AM JST
Current time: Tuesday, August 16, 2022 11:06 AM JST

Current weather
Weather history
Weather forecast

Temperature30.0°C (86.0°F)
Heat index34.2°C (93.6°F)
Dew point23.0°C (73.4°F)
Winds 22 kts (11.3 m/s, 25.3 mph) South-Southwest (200°)
Wind gusts 34 kts (17.5 m/s, 39.1 mph)
Visibility6.2 mi. (10 km)
Clouds Ceiling: Broken clouds 0 ft. (0 m)
Few clouds 2,000 ft. (610 m)
Scattered clouds 17,000 ft. (5,182 m)
Altimeter29.68 in.Hg (1005 mB)
Relative humidity66 %
Density altitude2,374 ft. (724 m)
Flight conditions Low Instrument Meteorological Conditions
Raw dataRJTT 240100Z 20022KT 9999 FEW020 SCT170 BKN/// 30/23 Q1005 TEMPO 20024G34KT RMK 1CU020 4AC170 A2970
An error has occurred. This application may no longer respond until reloaded. Reload 🗙